Time;durP1;ratioP1;P1;durP2;ratioP2;P2;SDS_P1;SDS_P2;PMS_P1;PMS_P2;Temp;Humidity;BMP_temperature;BMP_pressure;BME280_temperature;BME280_humidity;BME280_pressure;Samples;Min_cycle;Max_cycle;Signal;HPM_P1;HPM_P2
2023/01/14 00:01:28;;;;;;;0.50;0.17;;;7.90;99.90;;;;;;4827603;29;20461;-71
2023/01/14 00:03:57;;;;;;;0.50;0.20;;;7.80;99.90;;;;;;4827401;29;20442;-73
2023/01/14 00:06:26;;;;;;;0.50;0.17;;;7.90;99.90;;;;;;4827281;29;20470;-72
2023/01/14 00:08:55;;;;;;;0.50;0.17;;;7.80;99.90;;;;;;4827267;29;20491;-73
2023/01/14 00:11:45;;;;;;;0.50;0.10;;;7.80;99.90;;;;;;4827043;29;20468;-70
2023/01/14 00:14:14;;;;;;;3.60;0.93;;;7.70;99.90;;;;;;4827044;29;20461;-72
2023/01/14 00:16:43;;;;;;;26.93;1.50;;;7.60;99.90;;;;;;4829452;29;20505;-73
2023/01/14 00:19:11;;;;;;;40.60;3.60;;;7.60;99.90;;;;;;4830965;29;20457;-72
2023/01/14 00:21:40;;;;;;;0.50;0.10;;;7.60;99.90;;;;;;4831035;29;20486;-72
2023/01/14 00:24:08;;;;;;;3.63;0.70;;;7.70;99.90;;;;;;4830165;29;20983;-73
2023/01/14 00:26:36;;;;;;;0.50;0.10;;;7.70;99.90;;;;;;4828013;29;20818;-72
2023/01/14 00:29:04;;;;;;;2.80;0.63;;;7.80;99.90;;;;;;4827356;29;20463;-73
2023/01/14 00:31:33;;;;;;;0.50;0.20;;;7.80;99.90;;;;;;4826809;29;20457;-72
2023/01/14 00:34:01;;;;;;;0.50;0.10;;;7.80;99.90;;;;;;4825993;29;20491;-72
2023/01/14 00:36:29;;;;;;;1.13;0.60;;;7.90;99.90;;;;;;4825509;29;20575;-71
2023/01/14 00:38:57;;;;;;;0.83;0.60;;;7.90;99.90;;;;;;4824981;29;20469;-73
2023/01/14 00:41:27;;;;;;;1.90;1.33;;;7.90;99.90;;;;;;4825549;29;20456;-70
2023/01/14 00:43:58;;;;;;;0.50;0.10;;;7.90;99.90;;;;;;4828216;29;20482;-71
2023/01/14 00:46:28;;;;;;;0.50;0.10;;;8.00;99.90;;;;;;4828238;29;21084;-72
2023/01/14 00:48:59;;;;;;;1.30;1.07;;;8.00;99.90;;;;;;4828284;29;20533;-71
2023/01/14 00:51:28;;;;;;;0.50;0.10;;;8.10;99.90;;;;;;4825465;29;20449;-72
2023/01/14 00:53:56;;;;;;;10.53;0.67;;;8.10;99.90;;;;;;4824729;29;20945;-72
2023/01/14 00:56:24;;;;;;;0.60;0.20;;;8.00;99.90;;;;;;4824802;29;20493;-70
2023/01/14 00:58:52;;;;;;;3.50;0.43;;;8.10;99.90;;;;;;4824353;29;20511;-72
2023/01/14 05:01:46;;;;;;;0.50;0.10;;;7.40;99.90;;;;;;5311996;23;20849;-73
2023/01/14 05:04:14;;;;;;;0.50;0.20;;;7.30;99.90;;;;;;4825720;29;20457;-72
2023/01/14 05:06:42;;;;;;;0.60;0.20;;;7.20;99.90;;;;;;4825472;29;20888;-75
2023/01/14 05:09:10;;;;;;;0.50;0.10;;;7.20;99.90;;;;;;4840477;29;20449;-74
2023/01/14 05:11:38;;;;;;;0.50;0.10;;;7.90;99.90;;;;;;4845630;29;21060;-74
2023/01/14 05:14:06;;;;;;;0.50;0.10;;;7.20;99.90;;;;;;4841848;29;20863;-74
2023/01/14 05:16:33;;;;;;;0.50;0.10;;;7.20;99.90;;;;;;4869033;23;20512;-72
2023/01/14 05:19:03;;;;;;;0.50;0.10;;;7.20;99.90;;;;;;4834925;29;20465;-72
2023/01/14 05:21:32;;;;;;;0.50;0.10;;;7.20;99.90;;;;;;4834427;29;20539;-73
2023/01/14 05:24:00;;;;;;;0.70;0.37;;;7.20;99.90;;;;;;4835467;29;20461;-72
2023/01/14 05:26:28;;;;;;;0.50;0.10;;;7.20;99.90;;;;;;4836737;29;21019;-72
2023/01/14 05:28:56;;;;;;;0.50;0.10;;;7.20;99.90;;;;;;4835744;29;20487;-73
2023/01/14 05:31:24;;;;;;;1.50;0.57;;;7.30;99.90;;;;;;4837139;29;20457;-72
2023/01/14 05:33:51;;;;;;;0.50;0.20;;;7.30;99.90;;;;;;4836434;29;20465;-73
2023/01/14 05:36:21;;;;;;;0.50;0.10;;;7.30;99.90;;;;;;4836676;29;20472;-72
2023/01/14 05:38:49;;;;;;;1.33;1.23;;;7.30;99.90;;;;;;4835765;29;20509;-72
2023/01/14 05:41:16;;;;;;;0.50;0.10;;;7.30;99.90;;;;;;4834814;29;20449;-73
2023/01/14 05:46:29;;;;;;;0.60;0.37;;;7.30;99.90;;;;;;4833067;29;20542;-71
2023/01/14 05:48:57;;;;;;;0.50;0.10;;;7.30;99.90;;;;;;4834762;29;20527;-72
2023/01/14 05:51:26;;;;;;;0.50;0.10;;;7.30;99.90;;;;;;4833958;29;20461;-72
2023/01/14 05:53:54;;;;;;;0.50;0.10;;;7.40;99.90;;;;;;4834443;29;20456;-72
2023/01/14 05:56:22;;;;;;;0.50;0.10;;;7.40;99.90;;;;;;4832961;29;20479;-72
2023/01/14 05:58:51;;;;;;;0.50;0.10;;;7.40;99.90;;;;;;4834193;29;20496;-73
2023/01/14 06:06:52;;;;;;;0.50;0.10;;;7.50;99.90;;;;;;4831222;29;20485;-72
2023/01/14 06:09:20;;;;;;;0.50;0.10;;;7.50;99.90;;;;;;4843059;29;20459;-71
2023/01/14 06:11:50;;;;;;;0.50;0.10;;;7.50;99.90;;;;;;4850288;29;20463;-71
2023/01/14 06:14:18;;;;;;;0.50;0.10;;;7.50;99.90;;;;;;4850071;29;20495;-72
2023/01/14 06:16:51;;;;;;;0.50;0.10;;;7.50;99.90;;;;;;4851788;29;20499;-71
2023/01/14 06:19:19;;;;;;;0.50;0.10;;;7.40;99.90;;;;;;4852237;29;20452;-71
2023/01/14 06:21:47;;;;;;;0.50;0.10;;;7.40;99.90;;;;;;4846128;29;20584;-71
2023/01/14 06:24:17;;;;;;;0.60;0.50;;;7.50;99.90;;;;;;4849063;29;20461;-71
2023/01/14 06:26:45;;;;;;;0.50;0.10;;;7.40;99.90;;;;;;4849222;29;20489;-71
2023/01/14 06:29:13;;;;;;;0.70;0.50;;;7.40;99.90;;;;;;4848973;29;20464;-72
2023/01/14 06:31:42;;;;;;;0.50;0.10;;;7.40;99.90;;;;;;4848103;29;20882;-70
2023/01/14 06:34:10;;;;;;;0.50;0.10;;;7.50;99.90;;;;;;4847192;29;20454;-72
2023/01/14 06:36:38;;;;;;;0.50;0.20;;;7.50;99.90;;;;;;4853290;29;20483;-71
2023/01/14 06:39:06;;;;;;;0.50;0.10;;;7.50;99.90;;;;;;4850025;29;20571;-72
2023/01/14 06:41:36;;;;;;;0.50;0.10;;;7.50;99.90;;;;;;4844649;29;20461;-71
2023/01/14 06:44:03;;;;;;;0.50;0.10;;;7.50;99.90;;;;;;4845589;29;20456;-73
2023/01/14 06:46:31;;;;;;;0.50;0.10;;;7.60;99.90;;;;;;4844885;29;20480;-72
2023/01/14 06:48:59;;;;;;;0.50;0.10;;;7.50;99.90;;;;;;4845351;29;20455;-72
2023/01/14 06:51:27;;;;;;;0.50;0.10;;;7.50;99.90;;;;;;4845591;29;20986;-71
2023/01/14 06:53:55;;;;;;;1.43;1.07;;;7.50;99.90;;;;;;4845741;29;20476;-71
2023/01/14 06:56:23;;;;;;;0.50;0.10;;;7.60;99.90;;;;;;4846598;29;20497;-71
2023/01/14 06:58:52;;;;;;;0.50;0.10;;;7.50;99.90;;;;;;4851156;29;20523;-72
2023/01/14 07:01:21;;;;;;;0.50;0.10;;;7.60;99.90;;;;;;4847948;29;20488;-71
2023/01/14 07:03:49;;;;;;;0.50;0.10;;;8.50;99.90;;;;;;4847449;29;20959;-71
2023/01/14 07:06:17;;;;;;;0.50;0.10;;;7.70;99.90;;;;;;4845670;29;20482;-73
2023/01/14 07:08:45;;;;;;;0.50;0.10;;;7.70;99.90;;;;;;4845342;29;21035;-73
2023/01/14 07:11:13;;;;;;;0.50;0.10;;;7.70;99.90;;;;;;4845426;29;20955;-73
2023/01/14 07:13:41;;;;;;;0.50;0.10;;;7.80;99.90;;;;;;4843936;29;20473;-72
2023/01/14 07:16:10;;;;;;;0.50;0.10;;;7.80;99.90;;;;;;4832059;29;20560;-71
2023/01/14 07:18:38;;;;;;;0.50;0.10;;;7.80;99.90;;;;;;4830975;29;20899;-71
2023/01/14 07:21:06;;;;;;;0.50;0.10;;;7.80;99.90;;;;;;4829941;29;20464;-72
2023/01/14 07:23:34;;;;;;;0.50;0.10;;;7.90;99.90;;;;;;4829090;29;20469;-72
2023/01/14 07:26:02;;;;;;;0.50;0.13;;;7.90;99.90;;;;;;4829724;29;20490;-73
2023/01/14 07:28:32;;;;;;;0.50;0.10;;;7.90;99.90;;;;;;4830632;29;20457;-72
2023/01/14 07:31:05;;;;;;;0.50;0.10;;;7.90;99.90;;;;;;4829046;29;20545;-72
2023/01/14 07:33:35;;;;;;;0.50;0.10;;;7.90;99.90;;;;;;4827168;29;20453;-73
2023/01/14 07:36:03;;;;;;;0.50;0.10;;;8.00;99.90;;;;;;4827037;29;20561;-71
2023/01/14 07:38:31;;;;;;;0.50;0.10;;;8.00;99.90;;;;;;4827536;29;20498;-73
2023/01/14 07:40:59;;;;;;;0.50;0.10;;;8.00;99.90;;;;;;4827819;29;20461;-70
2023/01/14 07:43:27;;;;;;;0.50;0.10;;;8.00;99.90;;;;;;4826739;29;20487;-73
2023/01/14 07:45:58;;;;;;;0.50;0.10;;;8.00;99.90;;;;;;4827355;29;20589;-73
2023/01/14 07:48:26;;;;;;;0.50;0.10;;;8.10;99.90;;;;;;4828213;29;20495;-73
2023/01/14 07:50:55;;;;;;;0.60;0.23;;;8.10;99.90;;;;;;4826790;29;20867;-73
2023/01/14 07:53:23;;;;;;;0.50;0.10;;;8.00;99.90;;;;;;4827611;29;20837;-73
2023/01/14 07:55:51;;;;;;;0.50;0.10;;;8.10;99.90;;;;;;4828833;29;20472;-74
2023/01/14 07:58:21;;;;;;;0.50;0.10;;;8.10;99.90;;;;;;4833395;29;20485;-73
2023/01/14 08:00:49;;;;;;;0.50;0.10;;;8.10;99.90;;;;;;4830144;29;20464;-74
2023/01/14 08:03:17;;;;;;;0.50;0.10;;;8.10;99.90;;;;;;4831172;29;20945;-73
2023/01/14 08:05:45;;;;;;;0.50;0.20;;;8.20;99.90;;;;;;4831614;29;20473;-73
2023/01/14 08:08:14;;;;;;;0.50;0.10;;;8.10;99.90;;;;;;4832849;29;20452;-73
2023/01/14 08:10:42;;;;;;;0.50;0.10;;;8.20;99.90;;;;;;4847514;29;20452;-73
2023/01/14 08:13:12;;;;;;;0.50;0.10;;;8.10;99.90;;;;;;4846629;29;20457;-73
2023/01/14 08:15:40;;;;;;;8.07;7.30;;;8.20;99.90;;;;;;4845533;29;20503;-73
2023/01/14 08:18:07;;;;;;;0.50;0.10;;;8.30;99.90;;;;;;4845927;29;20484;-73
2023/01/14 08:20:35;;;;;;;0.50;0.10;;;8.20;99.90;;;;;;4845763;29;20464;-74
2023/01/14 08:23:03;;;;;;;0.50;0.10;;;8.20;99.90;;;;;;4846660;29;20452;-74
2023/01/14 08:25:32;;;;;;;0.50;0.10;;;8.30;99.90;;;;;;4847170;29;20484;-73
2023/01/14 08:28:00;;;;;;;0.50;0.10;;;8.90;99.90;;;;;;4847154;29;20475;-73
2023/01/14 08:30:31;;;;;;;0.50;0.20;;;8.30;99.90;;;;;;4846248;29;20799;-73
2023/01/14 08:32:59;;;;;;;0.50;0.10;;;8.30;99.90;;;;;;4845030;29;20459;-74
2023/01/14 08:35:27;;;;;;;0.50;0.10;;;8.30;99.90;;;;;;4844058;29;20474;-74
2023/01/14 08:37:55;;;;;;;0.50;0.10;;;8.30;99.90;;;;;;4843906;29;20460;-73
2023/01/14 08:40:23;;;;;;;0.50;0.10;;;8.30;99.90;;;;;;4843367;29;21003;-74
2023/01/14 08:42:52;;;;;;;0.50;0.10;;;8.40;99.90;;;;;;4844191;29;20507;-73
2023/01/14 08:45:20;;;;;;;0.50;0.10;;;8.30;99.90;;;;;;4843294;29;20452;-73
2023/01/14 08:47:48;;;;;;;0.50;0.10;;;8.30;99.90;;;;;;4843874;29;20452;-73
2023/01/14 08:50:16;;;;;;;0.50;0.20;;;8.30;99.90;;;;;;4842641;29;20455;-74
2023/01/14 08:52:44;;;;;;;0.50;0.10;;;8.40;99.90;;;;;;4843813;29;20464;-72
2023/01/14 08:55:12;;;;;;;0.50;0.10;;;8.40;99.90;;;;;;4845427;29;20466;-74
2023/01/14 08:57:39;;;;;;;0.50;0.10;;;8.40;99.90;;;;;;4848390;29;20459;-73
2023/01/14 09:00:10;;;;;;;3.80;1.63;;;8.50;99.90;;;;;;4844797;29;20833;-74
2023/01/14 09:02:38;;;;;;;0.50;0.10;;;8.50;99.90;;;;;;4845518;29;20462;-74
2023/01/14 09:05:06;;;;;;;0.50;0.10;;;8.40;99.90;;;;;;4845064;29;20456;-73
2023/01/14 09:18:43;;;;;;;2.50;2.20;;;8.30;99.90;;;;;;4826743;29;20489;-73
2023/01/14 09:21:11;;;;;;;0.50;0.10;;;8.30;99.90;;;;;;4827111;29;20462;-73
2023/01/14 09:23:39;;;;;;;1.47;0.50;;;8.30;99.90;;;;;;4825657;29;20508;-73
2023/01/14 09:26:07;;;;;;;0.50;0.20;;;8.30;99.90;;;;;;4826969;29;20581;-72
2023/01/14 09:28:35;;;;;;;0.50;0.10;;;8.30;99.90;;;;;;4833445;29;20460;-73
2023/01/14 09:31:04;;;;;;;0.50;0.20;;;8.30;99.90;;;;;;4834133;29;20457;-73
2023/01/14 09:33:32;;;;;;;0.50;0.10;;;8.30;99.90;;;;;;4839233;29;20525;-73
2023/01/14 09:36:00;;;;;;;0.50;0.10;;;8.30;99.90;;;;;;4838016;29;20485;-71
2023/01/14 09:38:29;;;;;;;0.50;0.10;;;8.30;99.90;;;;;;4832035;29;20449;-73
2023/01/14 09:40:57;;;;;;;0.50;0.10;;;8.30;99.90;;;;;;4831463;29;20463;-73
2023/01/14 09:43:38;;;;;;;0.50;0.10;;;8.30;99.90;;;;;;4829232;29;20457;-73
2023/01/14 09:46:11;;;;;;;0.50;0.20;;;8.40;99.90;;;;;;4828036;29;20509;-71
2023/01/14 09:48:39;;;;;;;0.90;0.70;;;8.50;99.90;;;;;;4827200;29;20461;-72
2023/01/14 09:51:20;;;;;;;0.50;0.10;;;8.40;99.90;;;;;;4825813;29;20464;-73
2023/01/14 09:54:03;;;;;;;0.50;0.20;;;8.50;99.90;;;;;;4825794;29;20454;-73
2023/01/14 09:56:35;;;;;;;0.50;0.10;;;8.50;99.90;;;;;;4825841;29;21040;-73
2023/01/14 09:59:10;;;;;;;0.50;0.10;;;8.60;99.90;;;;;;4826659;29;20485;-73
2023/01/14 10:01:47;;;;;;;2.60;1.30;;;8.60;99.90;;;;;;4826946;29;20455;-71
2023/01/14 10:04:43;;;;;;;0.80;0.80;;;8.70;99.90;;;;;;4829821;29;20460;-73
2023/01/14 10:07:15;;;;;;;0.50;0.10;;;8.70;99.90;;;;;;4808100;29;20477;-73
2023/01/14 10:09:48;;;;;;;0.50;0.10;;;8.80;99.90;;;;;;4829729;29;20503;-73
2023/01/14 10:12:23;;;;;;;0.50;0.10;;;8.80;99.90;;;;;;4829251;29;20552;-73
2023/01/14 10:14:59;;;;;;;0.50;0.10;;;8.80;99.90;;;;;;4829625;29;20940;-73
2023/01/14 10:17:40;;;;;;;0.50;0.10;;;;;;;;;;4830733;29;21209;-73
2023/01/14 10:20:17;;;;;;;0.50;0.10;;;8.90;99.90;;;;;;4832165;29;20489;-74
2023/01/14 10:22:53;;;;;;;0.50;0.10;;;8.90;99.90;;;;;;4831784;29;20836;-73
2023/01/14 10:25:22;;;;;;;0.50;0.10;;;8.80;99.90;;;;;;4834859;29;20453;-73
2023/01/14 10:27:54;;;;;;;0.50;0.10;;;8.70;99.90;;;;;;4832874;29;20461;-74
2023/01/14 10:30:25;;;;;;;0.83;0.83;;;8.90;99.90;;;;;;4829938;29;20450;-73
2023/01/14 10:32:55;;;;;;;1.03;0.93;;;8.90;99.90;;;;;;4830016;29;20453;-73
2023/01/14 10:35:30;;;;;;;0.50;0.10;;;8.90;99.90;;;;;;4829725;29;20491;-72
2023/01/14 10:37:58;;;;;;;0.50;0.10;;;8.90;99.90;;;;;;4830407;29;20453;-74
2023/01/14 10:40:28;;;;;;;0.50;0.10;;;9.00;99.90;;;;;;4830091;29;20493;-73
2023/01/14 10:43:01;;;;;;;0.50;0.10;;;9.00;99.90;;;;;;4828727;29;20466;-73
2023/01/14 10:45:29;;;;;;;0.50;0.10;;;9.10;99.90;;;;;;4830138;29;20481;-73
2023/01/14 10:48:02;;;;;;;0.50;0.10;;;9.10;99.90;;;;;;4829221;29;20463;-72
2023/01/14 10:50:31;;;;;;;0.70;0.20;;;9.10;99.90;;;;;;4828968;29;20514;-73
2023/01/14 10:53:28;;;;;;;0.50;0.10;;;9.20;99.90;;;;;;4828787;29;20500;-72
2023/01/14 10:55:59;;;;;;;0.50;0.10;;;9.20;99.90;;;;;;4827297;29;20533;-75
2023/01/14 10:58:30;;;;;;;0.50;0.10;;;9.30;99.90;;;;;;4827957;29;20454;-73
2023/01/14 11:01:04;;;;;;;0.50;0.10;;;9.30;99.90;;;;;;4828071;29;20489;-73
2023/01/14 11:03:40;;;;;;;0.50;0.10;;;9.30;99.90;;;;;;4828206;29;20450;-73
2023/01/14 11:06:11;;;;;;;0.50;0.10;;;9.30;99.90;;;;;;4827278;29;20477;-73
2023/01/14 11:08:41;;;;;;;4.20;1.03;;;9.30;99.90;;;;;;4833590;29;20967;-73
2023/01/14 11:11:18;;;;;;;0.50;0.10;;;9.30;99.90;;;;;;4845477;29;20556;-70
2023/01/14 11:13:53;;;;;;;0.60;0.60;;;9.30;99.90;;;;;;4844870;29;20440;-72
2023/01/14 11:16:39;;;;;;;0.50;0.10;;;9.30;99.90;;;;;;4845423;29;20519;-72
2023/01/14 11:19:20;;;;;;;0.70;0.37;;;9.30;99.90;;;;;;4845674;29;20452;-73
2023/01/14 11:21:51;;;;;;;0.50;0.10;;;9.30;99.90;;;;;;4845712;29;20476;-72
2023/01/14 11:24:29;;;;;;;0.50;0.10;;;9.30;99.90;;;;;;4845995;29;20467;-72
2023/01/14 11:27:01;;;;;;;0.50;0.10;;;9.30;99.90;;;;;;4845456;29;20492;-73
2023/01/14 11:29:31;;;;;;;0.50;0.10;;;9.30;99.90;;;;;;4845592;29;20476;-72
2023/01/14 11:32:07;;;;;;;1.27;0.33;;;9.40;99.90;;;;;;4845311;29;20976;-73
2023/01/14 11:34:43;;;;;;;0.50;0.10;;;9.40;99.90;;;;;;4844899;29;20823;-71
2023/01/14 11:37:20;;;;;;;0.50;0.10;;;9.40;99.90;;;;;;4845846;29;20506;-72
2023/01/14 11:39:50;;;;;;;0.50;0.10;;;9.50;99.90;;;;;;4845784;29;20456;-72
2023/01/14 11:42:32;;;;;;;0.50;0.10;;;9.50;99.90;;;;;;4845013;29;20488;-71
2023/01/14 11:45:03;;;;;;;5.30;1.70;;;9.50;99.90;;;;;;4846906;29;20463;-71
2023/01/14 11:47:46;;;;;;;0.50;0.10;;;9.50;99.90;;;;;;4845136;29;20806;-70
2023/01/14 11:50:21;;;;;;;0.50;0.10;;;9.60;99.90;;;;;;4846937;29;21200;-71
2023/01/14 11:52:59;;;;;;;0.50;0.10;;;9.60;99.90;;;;;;4852625;29;20456;-73
2023/01/14 11:55:29;;;;;;;0.50;0.10;;;9.70;99.90;;;;;;4850860;29;20813;-71
2023/01/14 11:58:03;;;;;;;1.20;0.40;;;9.70;99.90;;;;;;4849308;29;20453;-71
2023/01/14 12:00:43;;;;;;;0.50;0.10;;;9.70;99.90;;;;;;4848888;29;20490;-73
2023/01/14 12:03:24;;;;;;;0.50;0.10;;;9.70;99.90;;;;;;4845241;29;20463;-72
2023/01/14 12:05:56;;;;;;;0.50;0.10;;;9.70;99.90;;;;;;4845744;29;20544;-72
2023/01/14 12:08:29;;;;;;;0.50;0.10;;;9.70;99.90;;;;;;4846949;29;20448;-73
2023/01/14 12:11:00;;;;;;;0.50;0.10;;;;;;;;;;4845390;29;20452;-73
2023/01/14 12:19:19;;;;;;;0.50;0.10;;;9.80;99.90;;;;;;4847729;29;20964;-72
2023/01/14 12:21:57;;;;;;;0.50;0.10;;;9.80;99.90;;;;;;4851018;29;20456;-73
2023/01/14 12:24:30;;;;;;;1.27;1.17;;;9.80;99.90;;;;;;4855693;29;20456;-71
2023/01/14 12:27:02;;;;;;;0.50;0.10;;;9.80;99.90;;;;;;4858120;29;20476;-70
2023/01/14 12:29:39;;;;;;;0.50;0.10;;;9.80;99.90;;;;;;4855965;29;20523;-72
2023/01/14 12:32:13;;;;;;;0.50;0.10;;;9.80;99.90;;;;;;4854368;29;20435;-71
2023/01/14 12:34:44;;;;;;;0.50;0.10;;;9.80;99.90;;;;;;4853204;29;20448;-72
2023/01/14 12:37:18;;;;;;;0.50;0.10;;;9.80;99.90;;;;;;4855789;29;20480;-72
2023/01/14 12:46:00;;;;;;;0.50;0.10;;;9.70;99.90;;;;;;4852572;29;20917;-72
2023/01/14 12:48:32;;;;;;;0.50;0.10;;;9.70;99.90;;;;;;4852760;29;20436;-73
2023/01/14 12:51:05;;;;;;;0.50;0.20;;;9.70;99.90;;;;;;4852559;29;20451;-72
2023/01/14 12:53:44;;;;;;;0.50;0.20;;;9.60;99.90;;;;;;4852244;29;20475;-73
2023/01/14 12:56:19;;;;;;;0.50;0.10;;;;;;;;;;4851768;29;20480;-70
2023/01/14 12:58:56;;;;;;;0.50;0.10;;;9.60;99.90;;;;;;4852545;29;20787;-73
2023/01/14 13:01:27;;;;;;;0.50;0.10;;;9.60;99.90;;;;;;4853688;29;20482;-72
2023/01/14 13:03:59;;;;;;;0.50;0.10;;;9.60;99.90;;;;;;4851047;29;20551;-70
2023/01/14 13:06:31;;;;;;;0.50;0.10;;;9.60;99.90;;;;;;4851102;29;20475;-72
2023/01/14 13:09:03;;;;;;;0.50;0.10;;;9.60;99.90;;;;;;4849650;29;20459;-72
2023/01/14 13:11:43;;;;;;;0.50;0.10;;;9.50;99.90;;;;;;4851136;29;20505;-72
2023/01/14 13:14:34;;;;;;;0.50;0.10;;;9.50;99.90;;;;;;4850757;29;20460;-72
2023/01/14 13:17:05;;;;;;;0.50;0.10;;;9.50;99.90;;;;;;4851425;29;20483;-71
2023/01/14 13:19:49;;;;;;;0.50;0.10;;;9.50;99.90;;;;;;4849542;29;20448;-72
2023/01/14 13:22:44;;;;;;;0.50;0.10;;;9.50;99.90;;;;;;4851509;29;20496;-72
2023/01/14 13:25:35;;;;;;;0.50;0.10;;;9.50;99.90;;;;;;4845788;29;20560;-70
2023/01/14 13:28:34;;;;;;;0.50;0.10;;;9.40;99.90;;;;;;4850972;29;20541;-72
2023/01/14 13:31:23;;;;;;;0.50;0.10;;;9.30;99.90;;;;;;4850098;29;20453;-73
2023/01/14 13:34:45;;;;;;;0.50;0.10;;;9.30;99.90;;;;;;4843700;29;20465;-73
2023/01/14 13:37:43;;;;;;;0.50;0.10;;;9.30;99.90;;;;;;4849714;29;20994;-72
2023/01/14 13:40:20;;;;;;;0.50;0.10;;;9.40;99.90;;;;;;4852123;29;20508;-72
2023/01/14 13:42:57;;;;;;;0.50;0.10;;;9.40;99.90;;;;;;4850763;29;21125;-73
2023/01/14 13:45:27;;;;;;;0.50;0.20;;;9.30;99.90;;;;;;4850583;29;20960;-72
2023/01/14 13:47:57;;;;;;;0.50;0.10;;;9.40;99.90;;;;;;4850313;29;20494;-72
2023/01/14 13:50:28;;;;;;;0.60;0.53;;;9.30;99.90;;;;;;4854085;29;20452;-71
2023/01/14 13:53:02;;;;;;;0.50;0.10;;;9.30;99.90;;;;;;4851707;29;20448;-71
2023/01/14 13:55:34;;;;;;;0.50;0.10;;;9.30;99.90;;;;;;4853695;29;20472;-71
2023/01/14 13:58:17;;;;;;;0.50;0.10;;;9.20;99.90;;;;;;4847903;29;20464;-72
2023/01/14 14:01:26;;;;;;;0.50;0.10;;;9.20;99.90;;;;;;4846770;29;20567;-72
2023/01/14 14:03:55;;;;;;;0.70;0.53;;;9.20;99.90;;;;;;4846498;29;20463;-72
2023/01/14 14:06:43;;;;;;;0.50;0.10;;;9.20;99.90;;;;;;4847735;29;20476;-73
2023/01/14 14:09:21;;;;;;;0.50;0.10;;;9.30;99.90;;;;;;4848085;29;20463;-71
2023/01/14 14:12:06;;;;;;;0.50;0.10;;;9.30;99.90;;;;;;4850803;29;20444;-71
2023/01/14 14:14:36;;;;;;;0.60;0.60;;;9.30;99.90;;;;;;4849829;29;20468;-72
2023/01/14 14:17:22;;;;;;;0.50;0.10;;;9.30;99.90;;;;;;4848238;29;20480;-72
2023/01/14 14:19:56;;;;;;;0.50;0.10;;;9.30;99.90;;;;;;4849729;29;20891;-72
2023/01/14 14:22:34;;;;;;;0.50;0.10;;;9.30;99.90;;;;;;4849850;29;20498;-72
2023/01/14 14:25:06;;;;;;;0.50;0.10;;;;;;;;;;4851570;29;20726;-73
2023/01/14 14:27:37;;;;;;;0.50;0.10;;;9.40;99.90;;;;;;4852394;29;20821;-72
2023/01/14 14:30:16;;;;;;;0.50;0.10;;;9.40;99.90;;;;;;4854713;29;20445;-72
2023/01/14 14:33:01;;;;;;;0.50;0.10;;;9.40;99.90;;;;;;4860125;29;20441;-69
2023/01/14 14:35:31;;;;;;;0.50;0.10;;;9.40;99.90;;;;;;4857030;29;20504;-69
2023/01/14 14:38:02;;;;;;;0.50;0.10;;;9.40;99.90;;;;;;4857015;29;21032;-72
2023/01/14 14:40:33;;;;;;;0.50;0.10;;;9.40;99.90;;;;;;4857016;29;20445;-73
2023/01/14 14:43:02;;;;;;;0.50;0.10;;;9.40;99.90;;;;;;4854790;29;20499;-72
2023/01/14 14:45:32;;;;;;;0.50;0.10;;;9.50;99.90;;;;;;4853315;29;20464;-71
2023/01/14 14:48:13;;;;;;;0.50;0.10;;;9.40;99.90;;;;;;4851614;29;20520;-73
2023/01/14 14:50:41;;;;;;;0.50;0.10;;;9.40;99.90;;;;;;4852068;29;20501;-71
2023/01/14 14:53:27;;;;;;;0.50;0.10;;;9.40;99.90;;;;;;4851093;29;20477;-70
2023/01/14 14:55:57;;;;;;;0.50;0.10;;;9.50;99.90;;;;;;4852645;29;20476;-72
2023/01/14 14:58:26;;;;;;;0.50;0.10;;;9.50;99.90;;;;;;4854234;29;20486;-70
2023/01/14 15:00:56;;;;;;;0.50;0.10;;;9.40;99.90;;;;;;4852016;29;20875;-73
2023/01/14 15:03:29;;;;;;;0.50;0.10;;;9.40;99.90;;;;;;4852796;29;20476;-71
2023/01/14 15:05:59;;;;;;;0.50;0.10;;;9.40;99.90;;;;;;4850978;29;20495;-72
2023/01/14 15:08:30;;;;;;;0.50;0.10;;;9.40;99.90;;;;;;4847833;29;20972;-72
2023/01/14 15:10:58;;;;;;;0.50;0.10;;;9.40;99.90;;;;;;4849054;29;20460;-73
2023/01/14 15:13:31;;;;;;;0.50;0.10;;;8.70;99.90;;;;;;4848007;29;20485;-71
2023/01/14 15:16:04;;;;;;;0.50;0.10;;;9.50;99.90;;;;;;4847394;29;20496;-72
2023/01/14 15:18:36;;;;;;;0.50;0.20;;;9.40;99.90;;;;;;4847658;29;20464;-70
2023/01/14 15:21:05;;;;;;;0.50;0.10;;;9.50;99.90;;;;;;4848851;29;20492;-70
2023/01/14 15:23:38;;;;;;;0.50;0.10;;;9.50;99.90;;;;;;4849789;29;20492;-71
2023/01/14 15:26:06;;;;;;;0.50;0.10;;;9.50;99.90;;;;;;4850234;29;20472;-70
2023/01/14 15:28:35;;;;;;;0.50;0.10;;;9.50;99.90;;;;;;4850185;29;20460;-73
2023/01/14 15:31:03;;;;;;;0.50;0.10;;;9.50;99.90;;;;;;4850247;29;20457;-72
2023/01/14 15:33:34;;;;;;;0.50;0.10;;;9.50;99.90;;;;;;4850678;29;20833;-71
2023/01/14 15:36:05;;;;;;;0.50;0.10;;;9.50;99.90;;;;;;4847702;29;20472;-71
2023/01/14 15:38:36;;;;;;;0.50;0.10;;;9.50;99.90;;;;;;4850042;29;20453;-72
2023/01/14 15:41:08;;;;;;;0.50;0.20;;;9.50;99.90;;;;;;4851173;29;20488;-71
2023/01/14 15:43:38;;;;;;;1.33;1.23;;;9.50;99.90;;;;;;4852421;29;20473;-70
2023/01/14 15:46:08;;;;;;;0.50;0.10;;;9.50;99.90;;;;;;4849204;29;20548;-71
2023/01/14 15:48:43;;;;;;;0.50;0.10;;;9.60;99.90;;;;;;4848553;29;20490;-71
2023/01/14 15:51:12;;;;;;;0.60;0.30;;;9.60;99.90;;;;;;4851634;29;20472;-71
2023/01/14 15:53:43;;;;;;;0.50;0.10;;;9.60;99.90;;;;;;4852038;29;20518;-73
2023/01/14 15:56:14;;;;;;;0.50;0.10;;;9.60;99.90;;;;;;4846968;29;20494;-73
2023/01/14 15:59:06;;;;;;;0.50;0.10;;;9.60;99.90;;;;;;4849327;29;20452;-73
2023/01/14 16:01:47;;;;;;;1.43;0.97;;;9.60;99.90;;;;;;4849070;29;20460;-72
2023/01/14 16:04:23;;;;;;;0.50;0.10;;;9.60;99.90;;;;;;4847163;29;20540;-73
2023/01/14 16:07:12;;;;;;;0.50;0.10;;;9.60;99.90;;;;;;4847248;29;20898;-74
2023/01/14 16:09:40;;;;;;;3.53;1.70;;;9.60;99.90;;;;;;4847581;29;20457;-73
2023/01/14 16:12:12;;;;;;;0.50;0.30;;;9.60;99.90;;;;;;4843006;29;20479;-74
2023/01/14 16:14:45;;;;;;;0.50;0.10;;;9.50;99.90;;;;;;4830057;29;20465;-74
2023/01/14 16:17:15;;;;;;;0.50;0.20;;;9.50;99.90;;;;;;4834988;29;20505;-73
2023/01/14 16:19:46;;;;;;;0.50;0.10;;;9.60;99.90;;;;;;4835073;29;20517;-74
2023/01/14 16:22:15;;;;;;;0.50;0.10;;;9.60;99.90;;;;;;4840012;29;20455;-72
2023/01/14 16:24:44;;;;;;;1.27;0.30;;;9.60;99.90;;;;;;4835032;29;20473;-72
2023/01/14 16:27:20;;;;;;;1.73;1.63;;;9.60;99.90;;;;;;4821267;29;20467;-71
2023/01/14 16:29:48;;;;;;;0.50;0.10;;;9.60;99.90;;;;;;4830672;29;20486;-73
2023/01/14 16:32:16;;;;;;;0.50;0.20;;;9.60;99.90;;;;;;4835934;29;20518;-73
2023/01/14 16:34:45;;;;;;;0.80;0.40;;;9.60;99.90;;;;;;4835954;29;20447;-72
2023/01/14 16:37:14;;;;;;;0.50;0.10;;;9.60;99.90;;;;;;4829425;29;20845;-72
2023/01/14 16:39:41;;;;;;;0.50;0.30;;;9.60;99.90;;;;;;4826533;29;20457;-73
2023/01/14 16:42:15;;;;;;;0.50;0.10;;;9.60;99.90;;;;;;4841848;29;20473;-73
2023/01/14 16:44:43;;;;;;;0.50;0.20;;;9.60;99.90;;;;;;4853818;29;20482;-73
2023/01/14 16:47:14;;;;;;;0.50;0.10;;;9.60;99.90;;;;;;4841427;29;20480;-72
2023/01/14 16:49:44;;;;;;;1.03;0.93;;;9.60;99.90;;;;;;4853411;29;20445;-72
2023/01/14 16:52:12;;;;;;;0.60;0.20;;;9.60;99.90;;;;;;4849419;29;20456;-72
2023/01/14 16:54:40;;;;;;;5.93;0.70;;;9.70;99.90;;;;;;4839844;29;20441;-72
2023/01/14 16:57:08;;;;;;;0.60;0.20;;;9.70;99.90;;;;;;4830706;29;20497;-71
2023/01/14 16:59:36;;;;;;;0.50;0.10;;;9.70;99.90;;;;;;4840967;29;20521;-73
2023/01/14 17:02:04;;;;;;;0.50;0.10;;;9.70;99.90;;;;;;4845974;29;20459;-73
2023/01/14 17:04:34;;;;;;;0.50;0.20;;;9.70;99.90;;;;;;4839687;29;20575;-73
2023/01/14 17:07:03;;;;;;;0.50;0.20;;;9.70;99.90;;;;;;4837292;29;20555;-73
2023/01/14 17:09:32;;;;;;;0.50;0.20;;;9.70;99.90;;;;;;4843368;29;20824;-72
2023/01/14 17:14:41;;;;;;;0.80;0.57;;;9.80;99.90;;;;;;4818774;29;20526;-73
2023/01/14 17:17:09;;;;;;;0.50;0.10;;;9.80;99.90;;;;;;4856743;24;20489;-74
2023/01/14 17:19:37;;;;;;;0.50;0.20;;;9.80;99.90;;;;;;4857241;29;20455;-74
2023/01/14 17:22:06;;;;;;;0.60;0.40;;;9.80;99.90;;;;;;4849702;29;20465;-74
2023/01/14 17:24:35;;;;;;;0.60;0.40;;;9.80;99.90;;;;;;4844540;29;21219;-76
2023/01/14 17:27:04;;;;;;;0.70;0.40;;;9.80;99.90;;;;;;4849608;29;20477;-75
2023/01/14 17:29:32;;;;;;;0.50;0.10;;;9.80;99.90;;;;;;4830821;29;20503;-76
2023/01/14 17:32:00;;;;;;;0.70;0.50;;;9.80;99.90;;;;;;4831059;29;20948;-76
2023/01/14 17:34:30;;;;;;;0.50;0.30;;;9.80;99.90;;;;;;4834317;29;20968;-76
2023/01/14 17:36:58;;;;;;;1.67;0.40;;;9.80;99.90;;;;;;4818548;29;20481;-76
2023/01/14 17:39:28;;;;;;;0.80;0.43;;;9.80;99.90;;;;;;4822816;29;20473;-74
2023/01/14 17:42:15;;;;;;;0.70;0.40;;;9.80;99.90;;;;;;4821657;29;20457;-76
2023/01/14 17:44:44;;;;;;;0.50;0.30;;;9.80;99.90;;;;;;4836880;29;20497;-74
2023/01/14 17:47:14;;;;;;;1.07;0.77;;;9.90;99.90;;;;;;4826040;29;20486;-75
2023/01/14 17:49:42;;;;;;;0.50;0.10;;;9.90;99.90;;;;;;4826920;29;20617;-75
2023/01/14 17:52:11;;;;;;;2.93;0.67;;;9.90;99.90;;;;;;4836538;29;20457;-74
2023/01/14 17:54:41;;;;;;;0.50;0.10;;;9.90;99.90;;;;;;4836119;29;20445;-75
2023/01/14 17:57:14;;;;;;;0.50;0.20;;;9.80;99.90;;;;;;4839016;29;20485;-77